Time;durP1;ratioP1;P1;durP2;ratioP2;P2;SDS_P1;SDS_P2;PMS_P1;PMS_P2;Temp;Humidity;BMP_temperature;BMP_pressure;BME280_temperature;BME280_humidity;BME280_pressure;Samples;Min_cycle;Max_cycle;Signal;HPM_P1;HPM_P2
2021/06/24 00:02:04;;;;;;;3.05;0.95;;;;;;;;;;5069358;28;20036;-71
2021/06/24 00:04:31;;;;;;;2.55;0.82;;;;;;;;;;5069986;28;20059;-72
2021/06/24 00:06:59;;;;;;;3.65;1.10;;;;;;;;;;5068657;28;20031;-71
2021/06/24 00:09:26;;;;;;;2.83;0.70;;;;;;;;;;5060922;28;20032;-73
2021/06/24 00:11:53;;;;;;;5.80;0.60;;;;;;;;;;5051854;28;20047;-70
2021/06/24 00:14:20;;;;;;;2.05;0.70;;;;;;;;;;5050482;28;20084;-71
2021/06/24 00:16:47;;;;;;;5.95;1.10;;;;;;;;;;5063190;28;20057;-71
2021/06/24 00:19:14;;;;;;;5.10;0.50;;;;;;;;;;5066735;28;20064;-71
2021/06/24 00:21:42;;;;;;;2.55;0.70;;;;;;;;;;5049851;28;20032;-69
2021/06/24 00:24:10;;;;;;;1.52;0.70;;;;;;;;;;5052909;28;20028;-71
2021/06/24 00:26:37;;;;;;;3.22;0.82;;;;;;;;;;5066340;28;20028;-71
2021/06/24 00:29:04;;;;;;;4.40;0.88;;;;;;;;;;5049817;28;20504;-72
2021/06/24 00:31:32;;;;;;;1.38;0.40;;;;;;;;;;5067547;28;20385;-71
2021/06/24 00:33:59;;;;;;;4.60;0.90;;;;;;;;;;5053217;28;20051;-72
2021/06/24 00:36:26;;;;;;;2.72;0.70;;;;;;;;;;5069833;28;20123;-71
2021/06/24 00:38:53;;;;;;;2.42;0.40;;;;;;;;;;5065809;28;20028;-71
2021/06/24 00:41:20;;;;;;;3.17;0.68;;;;;;;;;;5045561;28;20151;-70
2021/06/24 00:43:47;;;;;;;4.95;0.60;;;;;;;;;;5039533;28;20064;-72
2021/06/24 00:46:14;;;;;;;1.70;0.50;;;;;;;;;;5069306;28;20044;-71
2021/06/24 00:48:41;;;;;;;3.67;0.68;;;;;;;;;;5070129;28;20033;-71
2021/06/24 00:51:09;;;;;;;2.58;0.40;;;;;;;;;;5062049;28;20086;-71
2021/06/24 00:53:36;;;;;;;2.28;0.50;;;;;;;;;;5057223;28;20036;-71
2021/06/24 00:56:04;;;;;;;2.22;0.40;;;;;;;;;;5067605;28;20485;-71
2021/06/24 00:58:31;;;;;;;4.50;0.70;;;;;;;;;;5072008;28;20175;-72
2021/06/24 01:00:59;;;;;;;2.78;0.50;;;;;;;;;;5069708;28;20107;-72
2021/06/24 01:03:26;;;;;;;1.70;0.50;;;;;;;;;;5069201;28;20438;-72
2021/06/24 01:05:53;;;;;;;2.10;0.63;;;;;;;;;;5069303;28;20029;-71
2021/06/24 01:08:27;;;;;;;6.55;0.45;;;;;;;;;;5051982;28;20092;-72
2021/06/24 01:10:54;;;;;;;2.22;0.75;;;;;;;;;;5068971;28;20458;-71
2021/06/24 01:13:22;;;;;;;4.25;0.85;;;;;;;;;;5070432;28;20572;-70
2021/06/24 01:15:49;;;;;;;4.03;0.55;;;;;;;;;;5049942;28;20465;-70
2021/06/24 01:18:16;;;;;;;2.28;0.52;;;;;;;;;;5070697;28;20503;-70
2021/06/24 01:20:44;;;;;;;2.60;0.60;;;;;;;;;;5065847;28;20025;-69
2021/06/24 01:23:11;;;;;;;4.05;0.63;;;;;;;;;;5057741;28;20586;-69
2021/06/24 01:25:38;;;;;;;1.95;0.73;;;;;;;;;;5048844;28;20037;-72
2021/06/24 01:28:06;;;;;;;4.72;0.80;;;;;;;;;;5065051;28;20141;-71
2021/06/24 01:30:34;;;;;;;4.13;1.27;;;;;;;;;;5068034;28;20488;-71
2021/06/24 01:33:02;;;;;;;1.33;0.30;;;;;;;;;;5048968;28;20045;-71
2021/06/24 01:35:29;;;;;;;3.67;0.40;;;;;;;;;;5049654;28;20096;-71
2021/06/24 01:38:04;;;;;;;3.65;0.60;;;;;;;;;;5033762;28;20567;-72
2021/06/24 01:40:32;;;;;;;3.10;0.60;;;;;;;;;;5053025;28;20040;-72
2021/06/24 01:42:59;;;;;;;3.15;0.50;;;;;;;;;;5053423;28;20431;-72
2021/06/24 01:45:27;;;;;;;3.63;1.10;;;;;;;;;;5051221;28;20033;-72
2021/06/24 01:47:54;;;;;;;2.28;0.70;;;;;;;;;;5032164;28;20029;-72
2021/06/24 01:50:21;;;;;;;4.05;0.82;;;;;;;;;;5052041;28;20025;-72
2021/06/24 01:52:49;;;;;;;1.98;0.50;;;;;;;;;;5049611;28;20037;-71
2021/06/24 01:55:17;;;;;;;4.18;0.85;;;;;;;;;;5047741;28;20481;-71
2021/06/24 01:57:44;;;;;;;2.20;0.77;;;;;;;;;;5050354;28;20091;-71
2021/06/24 02:00:13;;;;;;;2.10;0.40;;;;;;;;;;5048985;28;20046;-73
2021/06/24 02:02:43;;;;;;;2.22;0.30;;;;;;;;;;5033777;28;20036;-72
2021/06/24 02:05:11;;;;;;;3.10;0.50;;;;;;;;;;5048330;28;20511;-72
2021/06/24 02:07:42;;;;;;;3.50;0.40;;;;;;;;;;5051415;28;20037;-72
2021/06/24 02:10:11;;;;;;;1.65;0.50;;;;;;;;;;5047598;28;20025;-71
2021/06/24 02:12:38;;;;;;;2.40;0.50;;;;;;;;;;5051482;28;20040;-72
2021/06/24 02:15:06;;;;;;;3.63;0.70;;;;;;;;;;5047785;28;20044;-72
2021/06/24 02:17:33;;;;;;;1.15;0.40;;;;;;;;;;5051421;28;20045;-72
2021/06/24 02:20:01;;;;;;;1.98;0.50;;;;;;;;;;5046797;28;20436;-73
2021/06/24 02:22:28;;;;;;;1.65;0.40;;;;;;;;;;5049707;28;20032;-71
2021/06/24 02:24:55;;;;;;;2.17;0.47;;;;;;;;;;5046126;28;20048;-72
2021/06/24 02:27:22;;;;;;;2.13;0.45;;;;;;;;;;5032263;28;20064;-71
2021/06/24 02:29:49;;;;;;;3.20;0.40;;;;;;;;;;5033138;28;20057;-72
2021/06/24 02:32:16;;;;;;;2.17;0.40;;;;;;;;;;5056799;28;20095;-72
2021/06/24 02:34:47;;;;;;;3.28;0.57;;;;;;;;;;5071184;28;20400;-72
2021/06/24 02:37:14;;;;;;;2.95;0.40;;;;;;;;;;5052414;28;20061;-71
2021/06/24 02:39:41;;;;;;;3.20;0.60;;;;;;;;;;5070393;28;20147;-71
2021/06/24 02:42:09;;;;;;;1.98;0.32;;;;;;;;;;5071597;28;20032;-72
2021/06/24 02:44:36;;;;;;;4.53;0.30;;;;;;;;;;5067719;28;20105;-72
2021/06/24 02:47:03;;;;;;;2.20;0.63;;;;;;;;;;5052613;28;20033;-71
2021/06/24 02:49:30;;;;;;;3.58;0.82;;;;;;;;;;5074417;28;20035;-71
2021/06/24 02:51:57;;;;;;;2.10;0.52;;;;;;;;;;5077555;28;20465;-72
2021/06/24 02:54:24;;;;;;;1.48;0.40;;;;;;;;;;5060294;28;20131;-72
2021/06/24 02:56:52;;;;;;;9.73;0.88;;;;;;;;;;5058718;28;20450;-71
2021/06/24 02:59:19;;;;;;;3.65;0.85;;;;;;;;;;5077778;28;20028;-72
2021/06/24 03:01:46;;;;;;;1.10;0.25;;;;;;;;;;5047634;28;20036;-72
2021/06/24 03:04:13;;;;;;;1.83;0.38;;;;;;;;;;5059838;28;20072;-72
2021/06/24 03:06:40;;;;;;;1.90;0.52;;;;;;;;;;5056846;28;20052;-71
2021/06/24 03:09:08;;;;;;;3.58;0.30;;;;;;;;;;5054980;28;20048;-71
2021/06/24 03:11:35;;;;;;;1.27;0.40;;;;;;;;;;5089468;28;20055;-71
2021/06/24 03:14:02;;;;;;;2.80;0.40;;;;;;;;;;5074362;28;20040;-72
2021/06/24 03:16:29;;;;;;;1.23;0.40;;;;;;;;;;5056997;28;20066;-72
2021/06/24 03:18:56;;;;;;;2.97;0.77;;;;;;;;;;5071869;28;20025;-73
2021/06/24 03:21:23;;;;;;;2.70;0.40;;;;;;;;;;5080348;28;20028;-73
2021/06/24 03:23:51;;;;;;;2.30;0.43;;;;;;;;;;5069171;28;20083;-73
2021/06/24 03:26:18;;;;;;;3.90;0.52;;;;;;;;;;5070747;28;20040;-72
2021/06/24 03:28:46;;;;;;;3.70;0.50;;;;;;;;;;5071564;28;20561;-72
2021/06/24 03:31:13;;;;;;;2.22;0.38;;;;;;;;;;5065698;28;20033;-72
2021/06/24 03:33:40;;;;;;;4.85;0.60;;;;;;;;;;5066955;28;20123;-73
2021/06/24 03:36:10;;;;;;;5.75;0.90;;;;;;;;;;5069546;28;20131;-72
2021/06/24 03:38:38;;;;;;;4.10;0.40;;;;;;;;;;5066643;28;20103;-72
2021/06/24 03:41:05;;;;;;;5.00;0.70;;;;;;;;;;5069942;28;20064;-74
2021/06/24 03:43:32;;;;;;;3.08;0.30;;;;;;;;;;5070371;28;20064;-71
2021/06/24 03:45:59;;;;;;;2.47;0.38;;;;;;;;;;5068080;28;20060;-73
2021/06/24 03:48:26;;;;;;;1.00;0.30;;;;;;;;;;5068188;28;20044;-73
2021/06/24 03:50:54;;;;;;;1.73;0.50;;;;;;;;;;5060663;28;20032;-73
2021/06/24 03:53:21;;;;;;;3.33;0.40;;;;;;;;;;5065182;28;20506;-73
2021/06/24 03:55:48;;;;;;;3.28;0.45;;;;;;;;;;5067316;28;20052;-72
2021/06/24 03:58:15;;;;;;;3.72;0.70;;;;;;;;;;5064629;28;20391;-73
2021/06/24 04:00:44;;;;;;;2.63;0.47;;;;;;;;;;5066184;28;20068;-73
2021/06/24 04:03:12;;;;;;;2.33;0.40;;;;;;;;;;5050500;28;20071;-73
2021/06/24 04:05:39;;;;;;;2.05;0.47;;;;;;;;;;5049643;28;20542;-72
2021/06/24 04:08:08;;;;;;;3.38;0.63;;;;;;;;;;5058558;28;20045;-73
2021/06/24 04:10:36;;;;;;;7.18;0.98;;;;;;;;;;5070293;28;20041;-73
2021/06/24 04:13:04;;;;;;;2.88;0.60;;;;;;;;;;5050577;28;20044;-73
2021/06/24 04:15:32;;;;;;;2.83;0.55;;;;;;;;;;5048554;28;20148;-72
2021/06/24 04:18:03;;;;;;;2.58;0.50;;;;;;;;;;5049063;28;20503;-72
2021/06/24 04:20:31;;;;;;;5.78;0.50;;;;;;;;;;5064246;28;20354;-72
2021/06/24 04:22:58;;;;;;;1.33;0.30;;;;;;;;;;5047955;28;20040;-72
2021/06/24 04:25:26;;;;;;;2.33;0.40;;;;;;;;;;5051951;28;20060;-71
2021/06/24 04:27:54;;;;;;;2.97;0.30;;;;;;;;;;5068928;28;20116;-72
2021/06/24 04:30:21;;;;;;;2.33;0.40;;;;;;;;;;5069583;28;20048;-72
2021/06/24 04:32:51;;;;;;;2.28;0.50;;;;;;;;;;5050754;28;20068;-73
2021/06/24 04:35:18;;;;;;;2.25;0.60;;;;;;;;;;5067709;28;20072;-72
2021/06/24 04:37:45;;;;;;;5.95;0.65;;;;;;;;;;5066609;28;20496;-72
2021/06/24 04:40:16;;;;;;;3.92;0.60;;;;;;;;;;5069621;28;20150;-73
2021/06/24 04:42:43;;;;;;;2.60;0.47;;;;;;;;;;5065319;28;20086;-72
2021/06/24 04:45:13;;;;;;;4.35;0.55;;;;;;;;;;5051195;28;20508;-72
2021/06/24 04:47:40;;;;;;;2.58;0.40;;;;;;;;;;5069293;28;20432;-72
2021/06/24 04:50:07;;;;;;;3.42;1.02;;;;;;;;;;5064306;28;20036;-72
2021/06/24 04:52:35;;;;;;;2.60;0.40;;;;;;;;;;5069860;28;20044;-72
2021/06/24 04:55:02;;;;;;;2.83;0.30;;;;;;;;;;5050419;28;20512;-72
2021/06/24 04:57:29;;;;;;;4.03;0.50;;;;;;;;;;5051255;28;20037;-71
2021/06/24 04:59:56;;;;;;;2.10;0.57;;;;;;;;;;5069127;28;20397;-72
2021/06/24 05:02:23;;;;;;;4.03;0.60;;;;;;;;;;5067099;28;20478;-72
2021/06/24 05:04:51;;;;;;;1.83;0.40;;;;;;;;;;5069445;28;20044;-72
2021/06/24 05:07:18;;;;;;;2.00;0.63;;;;;;;;;;5068584;28;20120;-72
2021/06/24 05:09:45;;;;;;;4.82;1.13;;;;;;;;;;5074908;28;20036;-72
2021/06/24 05:12:14;;;;;;;3.65;1.20;;;;;;;;;;5074388;28;20126;-71
2021/06/24 05:14:41;;;;;;;2.22;0.50;;;;;;;;;;5055652;28;20090;-72
2021/06/24 05:17:13;;;;;;;3.88;0.82;;;;;;;;;;5074678;28;20041;-72
2021/06/24 05:19:40;;;;;;;2.97;0.50;;;;;;;;;;5071207;28;20036;-72
2021/06/24 05:22:09;;;;;;;7.03;0.55;;;;;;;;;;5072193;28;20556;-72
2021/06/24 05:24:36;;;;;;;4.38;0.85;;;;;;;;;;5060257;28;20157;-72
2021/06/24 05:27:03;;;;;;;2.75;0.30;;;;;;;;;;5053765;28;20036;-72
2021/06/24 05:29:31;;;;;;;2.92;0.50;;;;;;;;;;5050786;28;20521;-70
2021/06/24 05:31:58;;;;;;;5.28;0.43;;;;;;;;;;5065865;28;20060;-73
2021/06/24 05:34:25;;;;;;;3.25;0.40;;;;;;;;;;5053456;28;20044;-72
2021/06/24 05:36:52;;;;;;;3.13;0.43;;;;;;;;;;5072249;28;20067;-72
2021/06/24 05:39:19;;;;;;;3.08;0.45;;;;;;;;;;5074118;28;20035;-72
2021/06/24 05:41:47;;;;;;;6.47;1.40;;;;;;;;;;5070673;28;20051;-72
2021/06/24 05:44:15;;;;;;;3.28;0.50;;;;;;;;;;5066343;28;20090;-73
2021/06/24 05:46:42;;;;;;;1.30;0.40;;;;;;;;;;5070348;28;20453;-72
2021/06/24 05:49:09;;;;;;;4.47;0.63;;;;;;;;;;5069962;28;20033;-72
2021/06/24 05:51:36;;;;;;;2.50;0.40;;;;;;;;;;5070373;28;20035;-72
2021/06/24 05:54:03;;;;;;;1.65;0.38;;;;;;;;;;5052529;28;20037;-73
2021/06/24 05:56:30;;;;;;;3.28;0.70;;;;;;;;;;5052372;28;20095;-72
2021/06/24 05:58:58;;;;;;;5.60;0.60;;;;;;;;;;5071962;28;20037;-72
2021/06/24 06:01:25;;;;;;;4.35;0.70;;;;;;;;;;5071605;28;20033;-72
2021/06/24 06:03:52;;;;;;;3.95;0.60;;;;;;;;;;5052382;28;20098;-72
2021/06/24 06:06:19;;;;;;;1.70;0.45;;;;;;;;;;5076650;28;20044;-72
2021/06/24 06:08:46;;;;;;;2.40;0.75;;;;;;;;;;5056225;28;20384;-72
2021/06/24 06:11:14;;;;;;;1.90;0.30;;;;;;;;;;5085796;28;20039;-72
2021/06/24 06:13:41;;;;;;;2.83;0.32;;;;;;;;;;5069341;28;20033;-72
2021/06/24 06:16:08;;;;;;;2.95;0.52;;;;;;;;;;5059225;28;20055;-72
2021/06/24 06:18:35;;;;;;;10.45;1.10;;;;;;;;;;5073489;28;20040;-72
2021/06/24 06:21:02;;;;;;;2.90;0.82;;;;;;;;;;5059186;28;20036;-71
2021/06/24 06:23:30;;;;;;;1.65;0.40;;;;;;;;;;5074501;28;20504;-72
2021/06/24 06:25:57;;;;;;;3.47;0.50;;;;;;;;;;5083787;28;20078;-72
2021/06/24 06:28:26;;;;;;;3.38;0.70;;;;;;;;;;5071314;28;20036;-72
2021/06/24 06:30:54;;;;;;;2.08;0.30;;;;;;;;;;5052083;28;20409;-72
2021/06/24 06:33:22;;;;;;;1.75;0.40;;;;;;;;;;5070464;28;20033;-72
2021/06/24 06:35:50;;;;;;;4.68;0.57;;;;;;;;;;5071098;28;20043;-72
2021/06/24 06:38:17;;;;;;;2.42;0.70;;;;;;;;;;5067542;28;20086;-72
2021/06/24 06:40:44;;;;;;;4.18;0.68;;;;;;;;;;5069007;28;20041;-72
2021/06/24 06:43:12;;;;;;;4.10;1.35;;;;;;;;;;5071199;28;20025;-72
2021/06/24 06:45:40;;;;;;;3.60;0.70;;;;;;;;;;5069549;28;20128;-71
2021/06/24 06:48:07;;;;;;;1.65;0.40;;;;;;;;;;5073408;28;20039;-72
2021/06/24 06:50:34;;;;;;;3.03;0.40;;;;;;;;;;5055067;28;20558;-72
2021/06/24 06:53:02;;;;;;;5.28;0.90;;;;;;;;;;5055556;28;20040;-72
2021/06/24 06:55:29;;;;;;;3.95;0.50;;;;;;;;;;5054646;28;20040;-72
2021/06/24 06:58:00;;;;;;;2.72;0.43;;;;;;;;;;5055737;28;20489;-72
2021/06/24 07:00:28;;;;;;;1.35;0.30;;;;;;;;;;5070853;28;20033;-71
2021/06/24 07:02:55;;;;;;;4.85;0.60;;;;;;;;;;5066455;28;20028;-71
2021/06/24 07:05:22;;;;;;;2.90;0.30;;;;;;;;;;5067850;28;20052;-71
2021/06/24 07:07:49;;;;;;;1.35;0.20;;;;;;;;;;5053199;28;20041;-71
2021/06/24 07:10:17;;;;;;;3.53;0.52;;;;;;;;;;5068992;28;20036;-71
2021/06/24 07:12:44;;;;;;;4.32;0.60;;;;;;;;;;5053337;28;20044;-71
2021/06/24 07:15:13;;;;;;;2.58;1.02;;;;;;;;;;5052757;28;20041;-71
2021/06/24 07:17:41;;;;;;;3.40;0.30;;;;;;;;;;5065086;28;20075;-71
2021/06/24 07:20:09;;;;;;;4.80;0.88;;;;;;;;;;5050486;28;20108;-71
2021/06/24 07:22:36;;;;;;;3.22;0.60;;;;;;;;;;5070657;28;20400;-71
2021/06/24 07:25:03;;;;;;;4.20;0.40;;;;;;;;;;5051102;28;20113;-71
2021/06/24 07:27:31;;;;;;;2.95;0.50;;;;;;;;;;5069318;28;20049;-71
2021/06/24 07:30:01;;;;;;;4.55;0.50;;;;;;;;;;5068482;28;20523;-71
2021/06/24 07:32:28;;;;;;;3.10;0.60;;;;;;;;;;5068163;28;20037;-72
2021/06/24 07:34:55;;;;;;;2.70;0.50;;;;;;;;;;5067212;28;20033;-71
2021/06/24 07:37:22;;;;;;;4.63;0.60;;;;;;;;;;5049501;28;20481;-71
2021/06/24 07:39:49;;;;;;;3.50;0.65;;;;;;;;;;5061877;28;20405;-71
2021/06/24 07:42:19;;;;;;;2.60;0.43;;;;;;;;;;5050762;28;20032;-71
2021/06/24 07:44:46;;;;;;;1.73;0.30;;;;;;;;;;5067576;28;20036;-71
2021/06/24 07:47:13;;;;;;;2.95;0.40;;;;;;;;;;5071253;28;20043;-71
2021/06/24 07:49:41;;;;;;;3.30;0.63;;;;;;;;;;5051689;28;20480;-71
2021/06/24 07:52:08;;;;;;;2.50;0.70;;;;;;;;;;5048975;28;20790;-71
2021/06/24 07:54:35;;;;;;;5.35;1.35;;;;;;;;;;5048800;28;20124;-71
2021/06/24 07:57:02;;;;;;;3.33;0.80;;;;;;;;;;5068500;28;20434;-71
2021/06/24 07:59:29;;;;;;;4.53;0.82;;;;;;;;;;5071638;28;20039;-71
2021/06/24 08:01:56;;;;;;;4.53;1.00;;;;;;;;;;5052958;28;20040;-71
2021/06/24 08:04:24;;;;;;;2.60;0.60;;;;;;;;;;5069610;28;20508;-71
2021/06/24 08:06:52;;;;;;;3.95;0.60;;;;;;;;;;5058405;28;20044;-71
2021/06/24 08:09:19;;;;;;;3.72;0.60;;;;;;;;;;5052333;28;20036;-71
2021/06/24 08:11:46;;;;;;;2.30;0.52;;;;;;;;;;5070977;28;20082;-71
2021/06/24 08:14:14;;;;;;;6.38;1.63;;;;;;;;;;5053133;28;20041;-71
2021/06/24 08:16:41;;;;;;;5.53;1.35;;;;;;;;;;5052861;28;20040;-71
2021/06/24 08:19:08;;;;;;;3.33;0.98;;;;;;;;;;5070019;28;20024;-71
2021/06/24 08:21:36;;;;;;;3.90;0.43;;;;;;;;;;5070916;28;20090;-71
2021/06/24 08:24:03;;;;;;;2.67;0.57;;;;;;;;;;5053584;28;20028;-71
2021/06/24 08:26:31;;;;;;;1.50;0.57;;;;;;;;;;5067711;28;20473;-70
2021/06/24 08:28:58;;;;;;;3.03;0.55;;;;;;;;;;5070075;28;20043;-71
2021/06/24 08:31:25;;;;;;;1.17;0.40;;;;;;;;;;5052124;28;20477;-72
2021/06/24 08:33:53;;;;;;;2.50;0.40;;;;;;;;;;5055132;28;20083;-72
2021/06/24 08:36:20;;;;;;;3.95;0.88;;;;;;;;;;5069601;28;20036;-72
2021/06/24 08:38:48;;;;;;;4.57;1.40;;;;;;;;;;5071943;28;20489;-72
2021/06/24 08:41:16;;;;;;;4.03;1.45;;;;;;;;;;5073512;28;20116;-71
2021/06/24 08:43:43;;;;;;;2.22;0.60;;;;;;;;;;5056307;28;20450;-71
2021/06/24 08:46:11;;;;;;;3.58;0.68;;;;;;;;;;5052508;28;20067;-71
2021/06/24 08:48:39;;;;;;;2.65;0.57;;;;;;;;;;5075814;28;20087;-71
2021/06/24 08:51:07;;;;;;;1.85;0.60;;;;;;;;;;5074579;28;20068;-71
2021/06/24 08:53:34;;;;;;;2.90;1.17;;;;;;;;;;5075673;28;20028;-71
2021/06/24 08:56:02;;;;;;;5.80;1.55;;;;;;;;;;5073742;28;20072;-71
2021/06/24 08:58:29;;;;;;;5.47;1.20;;;;;;;;;;5057764;28;20489;-71
2021/06/24 09:00:56;;;;;;;4.53;1.17;;;;;;;;;;5085657;28;20039;-70
2021/06/24 09:03:24;;;;;;;5.93;2.17;;;;;;;;;;5077860;28;20086;-71
2021/06/24 09:05:52;;;;;;;5.15;1.40;;;;;;;;;;5064573;28;20492;-71
2021/06/24 09:08:26;;;;;;;5.28;2.05;;;;;;;;;;5053626;28;20033;-70
2021/06/24 09:10:52;;;;;;;;;;;;;;;;;;5068008;28;20071;-70
2021/06/24 09:13:26;;;;;;;2.88;1.08;;;;;;;;;;5053113;28;19909;-71
2021/06/24 09:15:53;;;;;;;5.93;1.30;;;;;;;;;;5071651;28;20048;-68
2021/06/24 09:18:23;;;;;;;8.25;1.50;;;;;;;;;;5073012;28;20040;-69
2021/06/24 09:20:50;;;;;;;5.20;2.00;;;;;;;;;;5063540;28;20033;-69
2021/06/24 09:23:21;;;;;;;3.95;1.45;;;;;;;;;;5068386;28;20119;-69
2021/06/24 09:25:50;;;;;;;4.68;2.13;;;;;;;;;;5067954;28;20036;-70
2021/06/24 09:28:18;;;;;;;5.43;1.98;;;;;;;;;;5055294;28;20038;-70
2021/06/24 09:30:45;;;;;;;3.50;1.42;;;;;;;;;;5052567;28;20102;-70
2021/06/24 09:33:14;;;;;;;4.97;1.67;;;;;;;;;;5070805;28;20073;-71
2021/06/24 09:35:42;;;;;;;4.05;1.90;;;;;;;;;;5054158;28;20037;-72
2021/06/24 09:38:10;;;;;;;3.15;1.75;;;;;;;;;;5073281;28;20166;-70
2021/06/24 09:40:37;;;;;;;2.95;1.10;;;;;;;;;;5069909;28;20085;-71
2021/06/24 09:43:04;;;;;;;3.42;1.30;;;;;;;;;;5073310;28;20086;-70
2021/06/24 09:45:32;;;;;;;5.32;1.33;;;;;;;;;;5048827;28;20166;-70
2021/06/24 09:48:09;;;;;;;4.47;1.08;;;;;;;;;;5062999;28;20041;-71
2021/06/24 09:50:37;;;;;;;3.63;1.05;;;;;;;;;;5046871;28;20041;-71
2021/06/24 09:53:11;;;;;;;2.58;0.70;;;;;;;;;;5070544;28;20506;-70
2021/06/24 09:55:38;;;;;;;2.03;0.82;;;;;;;;;;5053963;28;20059;-70
2021/06/24 09:58:16;;;;;;;4.00;1.02;;;;;;;;;;5071885;28;20040;-72
2021/06/24 10:00:50;;;;;;;1.50;0.50;;;;;;;;;;5053692;28;20072;-73
2021/06/24 10:03:17;;;;;;;3.30;0.65;;;;;;;;;;5072732;28;20489;-70
2021/06/24 10:05:45;;;;;;;3.42;0.75;;;;;;;;;;5070442;28;20036;-70
2021/06/24 10:08:13;;;;;;;2.53;0.73;;;;;;;;;;5052983;28;20175;-71
2021/06/24 10:10:41;;;;;;;2.67;0.60;;;;;;;;;;5053730;28;20508;-71
2021/06/24 10:13:08;;;;;;;2.22;0.75;;;;;;;;;;5054834;28;20036;-70
2021/06/24 10:15:37;;;;;;;2.63;0.30;;;;;;;;;;5051782;28;20033;-72
2021/06/24 10:18:04;;;;;;;2.40;0.50;;;;;;;;;;5073660;28;20120;-70
2021/06/24 10:20:32;;;;;;;2.17;0.55;;;;;;;;;;5070939;28;20044;-71
2021/06/24 10:23:02;;;;;;;3.67;0.63;;;;;;;;;;5055778;28;20803;-70
2021/06/24 10:25:29;;;;;;;3.58;1.05;;;;;;;;;;5054955;28;20028;-70
2021/06/24 10:27:57;;;;;;;3.70;0.90;;;;;;;;;;5055434;28;20139;-69
2021/06/24 10:30:25;;;;;;;4.78;0.95;;;;;;;;;;5055532;28;20036;-71
2021/06/24 10:33:00;;;;;;;1.98;0.47;;;;;;;;;;5062503;28;20040;-71
2021/06/24 10:35:27;;;;;;;1.58;0.52;;;;;;;;;;5051826;28;20039;-71
2021/06/24 10:37:55;;;;;;;2.53;0.63;;;;;;;;;;5052335;28;20025;-71
2021/06/24 10:40:26;;;;;;;3.80;0.60;;;;;;;;;;5052511;28;20029;-71
2021/06/24 10:42:58;;;;;;;3.22;1.15;;;;;;;;;;5035356;28;20029;-70
2021/06/24 10:45:26;;;;;;;1.85;0.63;;;;;;;;;;5033980;28;20037;-71
2021/06/24 10:47:57;;;;;;;2.35;0.50;;;;;;;;;;5052660;28;20075;-71
2021/06/24 10:50:31;;;;;;;2.55;0.60;;;;;;;;;;5044304;28;20033;-70
2021/06/24 10:52:57;;;;;;;;;;;;;;;;;;5053636;28;20086;-71
2021/06/24 10:55:35;;;;;;;3.00;0.82;;;;;;;;;;5034157;28;20003;-70
2021/06/24 10:58:14;;;;;;;1.80;0.70;;;;;;;;;;5050007;28;20100;-70
2021/06/24 11:01:10;;;;;;;3.22;0.80;;;;;;;;;;5049040;28;20082;-71
2021/06/24 11:03:41;;;;;;;2.78;0.70;;;;;;;;;;5029001;28;20037;-71
2021/06/24 11:06:15;;;;;;;1.45;0.60;;;;;;;;;;5029778;28;20129;-71
2021/06/24 11:08:41;;;;;;;;;;;;;;;;;;5047845;28;20033;-71
2021/06/24 11:11:10;;;;;;;6.00;0.93;;;;;;;;;;5030840;28;19924;-71
2021/06/24 11:13:41;;;;;;;3.17;1.15;;;;;;;;;;5048240;28;20116;-70
2021/06/24 11:16:08;;;;;;;3.65;1.05;;;;;;;;;;5048894;28;20029;-71
2021/06/24 11:18:36;;;;;;;2.60;1.20;;;;;;;;;;5048086;28;20064;-71
2021/06/24 11:21:07;;;;;;;3.17;0.80;;;;;;;;;;5046900;28;20120;-70
2021/06/24 11:23:36;;;;;;;1.58;0.80;;;;;;;;;;5048175;28;20029;-70
2021/06/24 11:26:13;;;;;;;3.15;0.93;;;;;;;;;;5031390;28;20060;-70
2021/06/24 11:28:59;;;;;;;1.40;0.60;;;;;;;;;;5044657;28;20497;-70
2021/06/24 11:31:39;;;;;;;2.10;0.43;;;;;;;;;;5046997;28;20056;-70
2021/06/24 11:36:54;;;;;;;2.20;0.80;;;;;;;;;;5069652;28;20092;-70
2021/06/24 11:39:25;;;;;;;3.83;0.80;;;;;;;;;;5069376;28;20039;-70
2021/06/24 11:41:56;;;;;;;2.47;0.65;;;;;;;;;;5070518;28;20402;-70
2021/06/24 11:44:27;;;;;;;1.73;0.80;;;;;;;;;;5070421;28;20028;-70
2021/06/24 11:47:07;;;;;;;1.55;0.60;;;;;;;;;;5061777;28;20043;-70
2021/06/24 12:03:47;;;;;;;5.35;2.33;;;;;;;;;;5056253;28;20253;-70
2021/06/24 12:06:15;;;;;;;7.93;2.38;;;;;;;;;;5068078;28;20071;-70
2021/06/24 12:08:42;;;;;;;6.22;1.80;;;;;;;;;;5072164;28;20122;-70
2021/06/24 12:11:11;;;;;;;4.30;1.45;;;;;;;;;;5053780;28;20524;-70
2021/06/24 12:13:40;;;;;;;2.20;0.90;;;;;;;;;;5071955;28;20056;-70
2021/06/24 12:16:07;;;;;;;4.07;0.77;;;;;;;;;;5050537;28;20044;-70
2021/06/24 12:18:35;;;;;;;3.67;0.80;;;;;;;;;;5070596;28;20036;-70
2021/06/24 12:21:20;;;;;;;3.03;0.40;;;;;;;;;;5071451;28;20599;-70
2021/06/24 12:23:49;;;;;;;1.55;0.50;;;;;;;;;;5072263;28;20024;-70
2021/06/24 12:26:17;;;;;;;1.80;0.50;;;;;;;;;;5071575;28;20040;-70
2021/06/24 12:28:44;;;;;;;3.05;0.50;;;;;;;;;;5054422;28;20102;-70
2021/06/24 12:31:23;;;;;;;3.67;0.40;;;;;;;;;;5053122;28;20083;-70
2021/06/24 12:33:52;;;;;;;1.35;0.28;;;;;;;;;;5071645;28;20124;-70
2021/06/24 12:36:32;;;;;;;1.90;0.45;;;;;;;;;;5053636;28;20039;-70
2021/06/24 12:39:00;;;;;;;1.83;0.30;;;;;;;;;;5051462;28;20505;-70
2021/06/24 12:41:28;;;;;;;2.40;0.30;;;;;;;;;;5071411;28;20119;-70
2021/06/24 12:44:02;;;;;;;2.05;0.30;;;;;;;;;;5072170;28;20370;-70
2021/06/24 12:46:32;;;;;;;0.50;0.20;;;;;;;;;;5053376;28;20037;-70
2021/06/24 12:49:04;;;;;;;1.38;0.60;;;;;;;;;;5071346;28;20033;-70
2021/06/24 12:51:31;;;;;;;2.15;0.40;;;;;;;;;;5071010;28;20562;-70
2021/06/24 12:53:58;;;;;;;2.05;0.40;;;;;;;;;;5071837;28;20086;-70
2021/06/24 12:56:27;;;;;;;1.15;0.30;;;;;;;;;;5071055;28;20041;-70
2021/06/24 12:58:55;;;;;;;1.70;0.40;;;;;;;;;;5046629;28;20041;-71
2021/06/24 13:01:23;;;;;;;2.42;0.70;;;;;;;;;;5070460;28;20033;-70
2021/06/24 13:03:58;;;;;;;2.38;0.57;;;;;;;;;;5071739;28;20075;-70
2021/06/24 13:06:26;;;;;;;5.18;0.57;;;;;;;;;;5070923;28;20044;-70
2021/06/24 13:09:09;;;;;;;4.00;0.60;;;;;;;;;;5071383;28;20043;-70
2021/06/24 13:11:40;;;;;;;0.73;0.38;;;;;;;;;;5069863;28;20497;-70
2021/06/24 13:14:07;;;;;;;1.75;0.40;;;;;;;;;;5053056;28;20173;-70
2021/06/24 13:16:36;;;;;;;2.47;0.35;;;;;;;;;;5052237;28;20041;-70
2021/06/24 13:19:05;;;;;;;2.92;0.47;;;;;;;;;;5071605;28;20477;-70
2021/06/24 13:21:32;;;;;;;2.17;0.35;;;;;;;;;;5070553;28;20067;-70
2021/06/24 13:24:09;;;;;;;5.97;0.75;;;;;;;;;;5071586;28;20037;-70
2021/06/24 13:26:37;;;;;;;2.65;0.30;;;;;;;;;;5053310;28;20448;-71
2021/06/24 13:29:04;;;;;;;3.92;0.47;;;;;;;;;;5056444;28;20439;-71
2021/06/24 13:31:35;;;;;;;1.10;0.30;;;;;;;;;;5055592;28;20047;-70
2021/06/24 13:34:09;;;;;;;1.50;0.40;;;;;;;;;;5057023;28;20071;-71
2021/06/24 13:36:36;;;;;;;0.93;0.20;;;;;;;;;;5056250;28;20040;-70
2021/06/24 13:39:05;;;;;;;1.98;0.30;;;;;;;;;;5074937;28;20059;-70
2021/06/24 13:41:36;;;;;;;3.75;1.00;;;;;;;;;;5056564;28;20370;-70
2021/06/24 13:44:03;;;;;;;1.73;0.30;;;;;;;;;;5075171;28;20432;-70
2021/06/24 13:46:30;;;;;;;1.05;0.20;;;;;;;;;;5073028;28;20041;-71
2021/06/24 13:48:58;;;;;;;2.78;0.38;;;;;;;;;;5056691;28;20112;-71
2021/06/24 13:51:25;;;;;;;0.88;0.13;;;;;;;;;;5055423;28;20036;-70
2021/06/24 13:54:06;;;;;;;1.67;0.30;;;;;;;;;;5067366;28;20037;-71
2021/06/24 13:56:35;;;;;;;2.05;0.20;;;;;;;;;;5074225;28;20052;-71
2021/06/24 13:59:03;;;;;;;1.80;0.20;;;;;;;;;;5074626;28;20112;-71
2021/06/24 14:01:30;;;;;;;0.95;0.35;;;;;;;;;;5073485;28;20044;-71
2021/06/24 14:03:58;;;;;;;2.97;0.20;;;;;;;;;;5075028;28;20473;-70
2021/06/24 14:06:30;;;;;;;2.78;0.22;;;;;;;;;;5073882;28;20507;-71
2021/06/24 14:08:59;;;;;;;0.40;0.20;;;;;;;;;;5074733;28;20095;-70
2021/06/24 14:11:26;;;;;;;4.68;0.30;;;;;;;;;;5073496;28;20182;-70
2021/06/24 14:13:54;;;;;;;3.78;0.65;;;;;;;;;;5073812;28;20058;-70
2021/06/24 14:16:21;;;;;;;1.95;0.68;;;;;;;;;;5073457;28;20683;-71
2021/06/24 14:18:48;;;;;;;1.17;0.10;;;;;;;;;;5055556;28;20485;-70
2021/06/24 14:21:19;;;;;;;2.65;0.30;;;;;;;;;;5073603;28;20040;-71
2021/06/24 14:23:49;;;;;;;3.92;0.35;;;;;;;;;;5073016;28;20366;-71
2021/06/24 14:26:17;;;;;;;2.30;0.20;;;;;;;;;;5073495;28;20120;-71
2021/06/24 14:28:44;;;;;;;2.13;0.45;;;;;;;;;;5055133;28;20727;-70
2021/06/24 14:31:12;;;;;;;1.17;0.20;;;;;;;;;;5072926;28;20037;-71
2021/06/24 14:33:40;;;;;;;1.63;0.20;;;;;;;;;;5074173;28;20084;-71
2021/06/24 14:36:10;;;;;;;2.22;0.22;;;;;;;;;;5072843;28;20040;-71
2021/06/24 14:38:38;;;;;;;1.27;0.30;;;;;;;;;;5073973;28;20400;-71
2021/06/24 14:41:06;;;;;;;2.17;0.20;;;;;;;;;;5073264;28;20032;-71
2021/06/24 14:43:33;;;;;;;2.80;0.25;;;;;;;;;;5074177;28;20042;-71
2021/06/24 14:46:04;;;;;;;2.05;0.20;;;;;;;;;;5071701;28;20064;-71
2021/06/24 14:48:33;;;;;;;1.98;0.20;;;;;;;;;;5066211;28;20082;-70
2021/06/24 14:51:00;;;;;;;1.13;0.30;;;;;;;;;;5072874;28;20045;-71
2021/06/24 14:53:27;;;;;;;0.43;0.20;;;;;;;;;;5073969;28;20031;-71
2021/06/24 14:55:55;;;;;;;1.58;0.40;;;;;;;;;;5073047;28;20071;-69
2021/06/24 14:58:22;;;;;;;2.67;0.50;;;;;;;;;;5073883;28;20481;-70
2021/06/24 15:00:49;;;;;;;1.73;0.20;;;;;;;;;;5072211;28;20209;-69
2021/06/24 15:03:16;;;;;;;1.92;0.30;;;;;;;;;;5073706;28;20021;-70
2021/06/24 15:05:44;;;;;;;0.68;0.30;;;;;;;;;;5071766;28;20119;-69
2021/06/24 15:08:11;;;;;;;1.75;0.25;;;;;;;;;;5073486;28;20105;-70